Latest Weather Observations for Warrnambool

IDV60801

Issued at 9:52 am EST Sunday 19 September 2021 (issued every 10 minutes, with the page automatically refreshed every 10 minutes)

About weather observations | Map of weather stations | Latest weather observations for VIC | Other Formats
Station Details ID: 090186 Name: WARRNAMBOOL AIRPORT NDB Lat: -38.29 Lon: 142.45 Height: 70.8 m
Data from the previous 72 hours. | See also: Recent months at Warrnambool
Date/Time
EST
Temp
°C
App
Temp
°C
Dew
Point
°C
Rel
Hum
%
Delta-T
°C
Wind Press
QNH
hPa
Press
MSL
hPa
Rain since
9am
mm
Dir  Spd
km/h
Gust
km/h
Spd
kts
Gust
kts
19/09:30am 12.4 4.4 10.3 87 1.1 NNW 43 59 23 32 1013.6 1013.6 0.0
19/09:00am 11.7 3.7 10.3 91 0.7 NNW 43 56 23 30 1013.6 1013.6 1.0
19/08:34am 11.3 3.9 10.0 92 0.7 NNW 39 57 21 31 1013.5 1013.5 1.0
19/08:30am 11.3 4.0 10.2 93 0.6 NNW 39 52 21 28 1013.5 1013.5 1.0
19/08:01am 11.1 3.3 9.9 92 0.6 NNW 41 59 22 32 1013.5 1013.5 1.0
19/08:00am 11.0 3.2 9.9 93 0.6 NNW 41 54 22 29 1013.6 1013.6 1.0
19/07:43am 10.8 3.4 9.7 93 0.6 NNW 39 59 21 32 1013.6 1013.6 1.0
19/07:30am 10.6 3.2 9.7 94 0.5 NNW 39 52 21 28 1013.7 1013.7 1.0
19/07:00am 9.9 3.6 9.6 98 0.2 NNW 33 44 18 24 1014.2 1014.2 1.0
19/06:30am 9.8 3.4 9.2 96 0.3 NNW 33 43 18 23 1013.7 1013.7 1.0
19/06:22am 9.7 2.9 9.2 97 0.2 NNW 35 46 19 25 1013.8 1013.8 1.0
19/06:12am 9.9 2.7 9.3 96 0.3 NNW 37 52 20 28 1013.7 1013.7 1.0
19/06:00am 9.8 2.6 9.2 96 0.3 NNW 37 48 20 26 1013.7 1013.7 1.0
19/05:30am 9.6 3.1 9.1 97 0.2 NNW 33 44 18 24 1013.9 1013.9 1.0
19/05:00am 9.5 3.1 9.2 98 0.1 NNW 33 41 18 22 1013.8 1013.8 1.0
19/04:30am 9.5 2.7 9.2 98 0.1 NNW 35 48 19 26 1014.0 1014.0 1.0
19/04:00am 9.1 2.8 9.1 100 0.0 NNW 32 41 17 22 1014.1 1014.1 1.0
19/03:30am 8.7 2.3 8.6 99 0.0 NNW 32 39 17 21 1014.2 1014.2 1.0
19/03:00am 8.0 2.6 8.0 100 0.0 N 26 32 14 17 1014.4 1014.4 1.0
19/02:30am 7.8 2.7 7.8 100 0.0 N 24 32 13 17 1015.1 1015.1 1.0
19/02:00am 7.7 2.1 7.1 96 0.3 NNW 26 35 14 19 1015.5 1015.5 1.0
19/01:30am 7.5 2.2 6.9 96 0.3 N 24 30 13 16 1015.7 1015.7 1.0
19/01:00am 7.5 1.4 6.8 95 0.3 N 28 35 15 19 1015.8 1015.8 1.0
19/12:30am 8.1 2.1 7.0 93 0.5 N 28 33 15 18 1016.1 1016.1 1.0
19/12:00am 8.0 3.6 7.4 96 0.3 N 20 26 11 14 1016.5 1016.5 1.0
 
Date/Time
EST
Temp
°C
App
Temp
°C
Dew
Point
°C
Rel
Hum
%
Delta-T
°C
Wind Press
QNH
hPa
Press
MSL
hPa
Rain since
9am
mm
Dir  Spd
km/h
Gust
km/h
Spd
kts
Gust
kts
18/11:30pm 9.0 3.4 7.0 87 0.9 NNW 26 35 14 19 1016.4 1016.4 1.0
18/11:00pm 8.5 3.2 7.0 90 0.7 NNW 24 32 13 17 1017.0 1017.0 1.0
18/10:30pm 8.0 3.1 6.8 92 0.6 NNW 22 28 12 15 1017.2 1017.2 1.0
18/10:00pm 7.4 3.5 7.1 98 0.1 N 17 24 9 13 1017.5 1017.5 1.0
18/09:30pm 8.2 3.3 7.1 93 0.5 NNW 22 28 12 15 1017.5 1017.5 1.0
18/09:00pm 8.2 3.7 7.1 93 0.5 NNW 20 24 11 13 1017.4 1017.4 1.0
18/08:30pm 7.8 3.4 6.6 92 0.6 NNW 19 26 10 14 1017.4 1017.4 1.0
18/08:00pm 8.6 4.1 6.9 89 0.8 NNW 20 30 11 16 1017.1 1017.1 1.0
18/07:30pm 8.6 4.1 7.1 90 0.7 NW 20 26 11 14 1016.9 1016.9 1.0
18/07:00pm 10.3 5.8 7.0 80 1.6 WNW 20 44 11 24 1016.8 1016.8 1.0
18/06:30pm 10.2 6.1 6.2 76 1.9 WNW 17 26 9 14 1016.3 1016.3 1.0
18/06:00pm 10.6 5.0 5.6 71 2.3 WNW 24 33 13 18 1016.0 1016.0 1.0
18/05:30pm 11.3 3.6 5.4 67 2.7 WNW 35 48 19 26 1015.7 1015.7 1.0
18/05:23pm 11.6 5.3 5.5 66 2.8 W 28 46 15 25 1015.5 1015.5 1.0
18/05:00pm 11.9 5.5 7.0 72 2.4 W 30 46 16 25 1015.4 1015.4 1.0
18/04:56pm 12.0 5.2 7.5 74 2.2 W 33 52 18 28 1015.3 1015.3 1.0
18/04:30pm 12.1 4.3 6.6 69 2.6 W 37 48 20 26 1015.2 1015.2 1.0
18/04:15pm 12.0 5.9 6.7 70 2.5 W 28 50 15 27 1015.0 1015.0 1.0
18/04:00pm 12.4 5.5 8.7 78 1.8 W 35 48 19 26 1015.0 1015.0 1.0
18/03:30pm 12.5 3.5 6.3 66 2.9 W 43 54 23 29 1014.7 1014.7 1.0
18/03:04pm 12.1 4.2 6.4 68 2.7 W 37 56 20 30 1014.5 1014.5 1.0
18/03:00pm 12.2 5.3 8.9 80 1.7 W 35 48 19 26 1014.6 1014.6 1.0
18/02:30pm 11.3 3.5 6.8 74 2.1 W 37 50 20 27 1014.4 1014.4 1.0
18/02:08pm 11.4 4.0 6.9 74 2.1 WNW 35 54 19 29 1014.4 1014.4 1.0
18/02:00pm 11.6 4.3 7.3 75 2.1 W 35 48 19 26 1014.2 1014.2 1.0
18/01:30pm 10.9 3.1 8.3 84 1.3 W 39 50 21 27 1014.4 1014.4 1.0
18/01:23pm 10.0 2.6 8.4 90 0.8 W 37 52 20 28 1014.4 1014.4 1.0
18/01:03pm 8.5 -2.3 7.6 94 0.4 W 54 87 29 47 1014.7 1014.7 0.6
18/01:00pm 10.9 0.6 6.6 75 2.0 W 50 76 27 41 1014.2 1014.2 0.6
18/12:37pm 12.8 3.9 6.8 67 2.9 W 43 61 23 33 1013.6 1013.6 0.6
18/12:30pm 12.8 3.8 7.3 69 2.7 W 44 57 24 31 1013.7 1013.7 0.6
18/12:10pm 12.4 4.6 8.3 76 2.0 W 39 57 21 31 1013.7 1013.7 0.6
18/12:00pm 11.0 3.4 7.7 80 1.6 W 37 52 20 28 1013.8 1013.8 0.6
18/11:57am 10.8 3.8 8.6 86 1.1 W 35 48 19 26 1013.8 1013.8 0.6
18/11:40am 7.6 -1.6 6.2 91 0.6 W 44 61 24 33 1013.9 1013.9 0.6
18/11:38am 7.9 -1.8 5.7 86 1.0 W 46 61 25 33 1014.1 1014.1 0.6
18/11:36am 8.8 -0.5 5.9 82 1.3 WSW 44 61 24 33 1014.0 1014.0 0.2
18/11:30am 11.3 3.8 8.0 80 1.6 WSW 37 56 20 30 1013.7 1013.7 0.0
18/11:29am 11.4 3.8 7.5 77 1.9 WSW 37 56 20 30 1013.7 1013.7 0.0
18/11:19am 11.6 3.0 8.3 80 1.6 W 43 56 23 30 1013.5 1013.5 0.0
18/11:00am 12.6 3.6 6.6 67 2.9 WNW 43 67 23 36 1013.1 1013.1 0.0
18/10:49am 12.2 4.7 6.3 67 2.8 WNW 35 56 19 30 1012.9 1012.9 0.0
18/10:30am 11.6 4.1 8.1 79 1.7 NW 37 50 20 27 1012.9 1012.9 0.0
18/10:03am 10.8 4.4 8.4 85 1.2 NW 32 50 17 27 1013.0 1013.0 0.0
18/10:00am 10.3 3.0 7.4 82 1.4 NW 35 50 19 27 1013.0 1013.0 0.0
18/09:38am 10.8 3.8 8.4 85 1.2 NW 35 54 19 29 1012.5 1012.6 0.0
18/09:30am 10.8 4.3 6.7 76 1.9 WNW 30 46 16 25 1012.6 1012.7 0.0
18/09:14am 10.3 3.6 7.4 82 1.4 WNW 32 50 17 27 1012.5 1012.6 0.0
18/09:10am 10.1 3.7 8.4 89 0.8 WNW 32 46 17 25 1012.4 1012.5 0.0
18/09:00am 9.6 3.9 8.2 91 0.7 WNW 28 46 15 25 1012.5 1012.6 3.2
18/08:56am 9.8 3.9 7.6 86 1.1 WNW 28 46 15 25 1012.2 1012.3 3.2
18/08:30am 10.2 4.3 7.4 83 1.3 NW 28 43 15 23 1011.8 1011.9 3.0
18/08:27am 10.3 4.2 8.1 86 1.1 NW 30 48 16 26 1011.8 1011.9 3.0
18/08:00am 9.5 3.4 8.1 91 0.7 NW 30 37 16 20 1011.4 1011.5 3.0
18/07:30am 8.9 3.5 8.1 95 0.4 NW 26 35 14 19 1011.1 1011.2 3.0
18/07:00am 8.0 3.0 8.0 100 0.0 NW 24 32 13 17 1010.7 1010.8 3.0
18/06:30am 8.6 2.8 8.0 96 0.3 NW 28 44 15 24 1010.2 1010.3 3.0
18/06:23am 8.5 3.2 8.5 100 0.0 NW 26 33 14 18 1010.4 1010.5 3.0
18/06:09am 8.5 2.8 8.5 100 0.0 NW 28 37 15 20 1010.2 1010.3 3.0
18/06:00am 8.5 3.6 8.5 100 0.0 NW 24 32 13 17 1009.9 1010.0 3.0
18/05:30am 8.5 3.6 8.5 100 0.0 NW 24 32 13 17 1009.5 1009.6 3.0
18/05:00am 8.4 3.9 8.4 100 0.0 NW 22 30 12 16 1009.0 1009.1 3.0
18/04:30am 9.2 3.3 9.2 100 0.0 NW 30 39 16 21 1008.7 1008.8 3.0
18/04:00am 9.3 4.2 9.3 100 0.0 NW 26 35 14 19 1008.3 1008.4 3.0
18/03:30am 9.7 4.0 9.7 100 0.0 NW 30 41 16 22 1008.1 1008.2 3.0
18/03:00am 9.4 4.7 9.4 100 0.0 NW 24 32 13 17 1007.8 1007.9 3.0
18/02:30am 9.9 3.8 9.9 100 0.0 NW 32 44 17 24 1007.9 1008.0 3.0
18/02:00am 10.3 4.7 10.1 99 0.1 NW 30 39 16 21 1007.9 1008.0 3.0
18/01:48am 10.2 4.2 10.2 100 0.0 NW 32 43 17 23 1007.9 1008.0 3.0
18/01:30am 10.6 4.5 10.3 98 0.2 WNW 33 50 18 27 1008.3 1008.4 2.6
18/01:23am 10.8 5.8 10.8 100 0.0 WNW 28 50 15 27 1008.5 1008.6 2.4
18/01:22am 11.0 6.3 10.8 99 0.1 NW 26 44 14 24 1008.5 1008.6 2.0
18/01:04am 11.5 6.0 10.4 93 0.6 NW 30 48 16 26 1008.1 1008.2 1.8
18/01:00am 11.5 4.9 10.1 91 0.7 NW 35 52 19 28 1007.9 1008.0 1.8
18/12:33am 11.8 6.1 11.0 95 0.4 NW 32 54 17 29 1007.7 1007.8 1.8
18/12:30am 11.8 6.6 11.6 99 0.1 NW 30 43 16 23 1007.9 1008.0 1.8
18/12:00am 11.1 6.9 11.1 100 0.0 NNW 24 32 13 17 1007.6 1007.7 1.8
 
Date/Time
EST
Temp
°C
App
Temp
°C
Dew
Point
°C
Rel
Hum
%
Delta-T
°C
Wind Press
QNH
hPa
Press
MSL
hPa
Rain since
9am
mm
Dir  Spd
km/h
Gust
km/h
Spd
kts
Gust
kts
17/11:30pm 11.4 6.5 11.2 99 0.1 NNW 28 35 15 19 1007.5 1007.5 1.8
17/11:00pm 11.6 7.1 11.3 98 0.2 NNW 26 35 14 19 1007.6 1007.7 1.8
17/10:30pm 11.0 7.5 11.0 100 0.0 NNW 20 26 11 14 1007.9 1008.0 1.8
17/10:00pm 11.0 7.5 11.0 100 0.0 NNW 20 28 11 15 1008.1 1008.2 1.8
17/09:30pm 11.3 8.1 11.3 100 0.0 NNW 19 22 10 12 1008.2 1008.3 1.8
17/09:00pm 12.1 8.9 11.9 99 0.1 NNW 20 24 11 13 1008.3 1008.4 1.8
17/08:30pm 12.2 10.0 12.2 100 0.0 NW 15 20 8 11 1008.0 1008.1 1.8
17/08:00pm 12.6 10.0 12.0 96 0.3 WNW 17 24 9 13 1007.7 1007.8 1.4
17/07:30pm 12.9 10.6 12.9 100 0.0 WNW 17 24 9 13 1007.3 1007.3 0.6
17/07:21pm 13.0 8.9 12.8 99 0.1 W 26 35 14 19 1007.1 1007.1 0.6
17/07:00pm 13.2 8.3 12.6 96 0.3 W 30 41 16 22 1006.4 1006.4 0.2
17/06:56pm 13.4 8.5 12.6 95 0.4 W 30 39 16 21 1006.7 1006.7 0.2
17/06:30pm 14.3 9.7 12.2 87 1.1 WSW 28 39 15 21 1006.1 1006.1 0.0
17/06:00pm 14.3 10.5 13.7 96 0.3 WSW 26 41 14 22 1005.8 1005.8 0.0
17/05:30pm 15.0 9.8 13.5 91 0.8 WSW 33 44 18 24 1005.2 1005.2 0.0
17/05:00pm 19.6 15.6 10.6 56 4.9 NNW 22 30 12 16 1003.9 1003.9 0.0
17/04:30pm 21.7 16.0 11.1 51 5.9 N 32 39 17 21 1003.7 1003.7 0.0
17/04:00pm 21.3 16.5 11.6 54 5.4 N 28 43 15 23 1003.9 1003.9 0.0
17/03:30pm 20.2 14.9 11.4 57 4.9 N 30 44 16 24 1004.1 1004.1 0.0
17/03:00pm 20.6 13.1 10.7 53 5.4 NNW 41 59 22 32 1004.5 1004.5 0.0
17/02:31pm 20.4 11.7 9.9 51 5.7 NNW 46 65 25 35 1004.5 1004.5 0.0
17/02:30pm 20.7 12.0 9.9 50 5.8 NNW 46 63 25 34 1004.5 1004.5 0.0
17/02:20pm 21.3 13.7 9.2 46 6.5 NNW 39 69 21 37 1004.6 1004.6 0.0
17/02:12pm 22.4 16.9 11.8 51 6.0 N 32 50 17 27 1004.7 1004.7 0.0
17/02:00pm 20.8 14.7 10.3 51 5.7 N 33 46 18 25 1004.9 1004.9 0.0
17/01:38pm 21.3 16.4 12.7 58 4.9 NNE 30 48 16 26 1004.8 1004.8 0.0
17/01:30pm 21.0 14.9 11.9 56 5.1 NNE 35 48 19 26 1004.8 1004.8 0.0
17/01:00pm 20.6 13.7 11.5 56 5.1 NNE 39 50 21 27 1005.3 1005.3 0.0
17/12:38pm 19.8 12.7 9.7 52 5.4 N 37 56 20 30 1005.5 1005.5 0.0
17/12:30pm 20.6 13.3 11.5 56 5.1 N 41 56 22 30 1005.7 1005.7 0.0
17/12:18pm 19.9 12.9 9.8 52 5.4 N 37 61 20 33 1006.2 1006.2 0.0
17/12:00pm 18.4 11.2 9.2 55 4.8 N 37 50 20 27 1006.4 1006.4 0.0
17/11:44am 18.8 13.0 10.9 60 4.3 NNE 32 50 17 27 1006.9 1006.9 0.0
17/11:30am 17.9 14.1 11.2 65 3.6 NNE 22 33 12 18 1007.4 1007.4 0.0
17/11:00am 16.1 11.2 9.8 66 3.3 N 26 35 14 19 1008.4 1008.5 0.0
17/10:30am 14.2 9.1 9.2 72 2.6 NNE 26 35 14 19 1008.3 1008.4 0.0
17/10:00am 13.9 7.2 8.3 69 2.8 NNE 33 48 18 26 1008.2 1008.3 0.0
17/09:38am 13.7 5.9 8.1 69 2.8 NNE 39 57 21 31 1008.1 1008.2 0.0
17/09:30am 13.5 4.8 7.9 69 2.8 NNE 43 59 23 32 1008.0 1008.1 0.0
17/09:03am 12.9 4.4 7.1 68 2.8 NNE 41 59 22 32 1008.3 1008.4 0.0
17/09:00am 12.9 4.1 7.1 68 2.8 NNE 43 59 23 32 1008.3 1008.4 0.0
17/08:30am 12.4 3.7 7.5 72 2.4 NNE 43 67 23 36 1009.1 1009.2 0.0
17/08:26am 12.4 4.1 7.7 73 2.3 NNE 41 59 22 32 1009.3 1009.4 0.0
17/08:00am 11.8 4.2 7.5 75 2.1 NNE 37 50 20 27 1010.0 1010.1 0.0
17/07:45am 11.7 4.0 7.0 73 2.3 NNE 37 56 20 30 1010.2 1010.3 0.0
17/07:30am 11.3 2.8 6.8 74 2.1 NNE 41 54 22 29 1010.2 1010.3 0.0
17/07:00am 10.9 3.6 7.0 77 1.9 NNE 35 46 19 25 1010.5 1010.6 0.0
17/06:30am 10.8 3.8 6.7 76 1.9 NNE 33 48 18 26 1010.6 1010.7 0.0
17/06:22am 10.7 4.3 6.8 77 1.8 NNE 30 48 16 26 1010.7 1010.8 0.0
17/06:00am 9.9 3.5 6.8 81 1.5 NNE 30 41 16 22 1011.0 1011.1 0.0
17/05:30am 9.9 3.9 7.0 82 1.4 NE 28 41 15 22 1011.5 1011.6 0.0
17/05:00am 9.6 4.0 7.0 84 1.2 NNE 26 37 14 20 1011.8 1011.9 0.0
17/04:30am 9.4 4.1 7.0 85 1.1 NNE 24 32 13 17 1012.0 1012.1 0.0
17/04:00am 8.9 2.8 6.7 86 1.0 NE 28 37 15 20 1012.0 1012.1 0.0
17/03:30am 8.7 3.3 6.5 86 1.0 NE 24 35 13 19 1012.5 1012.6 0.0
17/03:00am 9.1 3.4 6.5 84 1.2 NE 26 35 14 19 1012.9 1012.9 0.0
17/02:30am 7.9 2.9 6.5 91 0.6 NE 22 32 12 17 1014.2 1014.2 0.0
17/02:00am 7.6 3.2 6.7 94 0.4 NE 19 24 10 13 1015.0 1015.0 0.0
17/01:30am 7.3 3.4 7.0 98 0.1 NE 17 22 9 12 1015.9 1015.9 0.0
17/01:00am 7.4 3.2 7.4 100 0.0 NE 19 24 10 13 1016.6 1016.6 0.0
17/12:30am 7.6 3.4 7.6 100 0.0 NE 19 28 10 15 1016.6 1016.6 0.0
17/12:00am 7.7 3.9 7.7 100 0.0 NE 17 24 9 13 1017.3 1017.3 0.0
 
Date/Time
EST
Temp
°C
App
Temp
°C
Dew
Point
°C
Rel
Hum
%
Delta-T
°C
Wind Press
QNH
hPa
Press
MSL
hPa
Rain since
9am
mm
Dir  Spd
km/h
Gust
km/h
Spd
kts
Gust
kts
16/11:30pm 8.1 4.0 8.0 99 0.0 NE 19 26 10 14 1017.5 1017.5 0.0
16/11:00pm 8.3 4.2 7.9 97 0.2 NE 19 26 10 14 1017.8 1017.8 0.0
16/10:30pm 8.6 5.0 8.3 98 0.1 NE 17 24 9 13 1018.3 1018.3 0.0
16/10:00pm 8.5 5.5 7.9 96 0.3 NE 13 20 7 11 1018.8 1018.8 0.0
16/09:30pm 8.9 6.2 7.4 90 0.7 ENE 11 20 6 11 1018.9 1018.9 0.0
16/09:00pm 9.5 6.8 7.3 86 1.0 ENE 11 15 6 8 1018.7 1018.7 0.0
16/08:30pm 9.4 7.1 7.3 87 1.0 E 9 11 5 6 1018.6 1018.6 0.0
16/08:00pm 10.0 7.4 7.6 85 1.1 E 11 13 6 7 1018.8 1018.8 0.0
16/07:30pm 10.5 8.2 7.4 81 1.5 E 9 13 5 7 1018.9 1018.9 0.0
16/07:00pm 11.0 8.8 7.9 81 1.5 E 9 13 5 7 1018.9 1018.9 0.0
16/06:30pm 11.4 9.5 7.5 77 1.9 E 7 9 4 5 1018.9 1018.9 0.0
16/06:00pm 12.9 10.7 8.0 72 2.4 E 9 11 5 6 1018.8 1018.8 0.0
16/05:30pm 13.7 12.3 8.7 72 2.5 E 6 7 3 4 1019.0 1019.0 0.0
16/05:19pm 13.4 11.9 8.5 72 2.5 ENE 6 9 3 5 1019.0 1019.0 0.0
16/05:03pm 13.3 11.5 8.0 70 2.6 ENE 7 11 4 6 1018.9 1018.9 0.0
16/05:00pm 13.6 11.8 8.0 69 2.8 ENE 7 11 4 6 1018.9 1018.9 0.0
16/04:30pm 14.8 11.4 7.8 63 3.5 E 15 20 8 11 1018.8 1018.8 0.0
16/04:00pm 14.3 10.5 7.6 64 3.3 ENE 17 28 9 15 1019.0 1019.0 0.0
16/03:30pm 14.8 11.9 8.1 64 3.4 ENE 13 19 7 10 1019.4 1019.5 0.0
16/03:00pm 14.1 10.3 7.4 64 3.3 ENE 17 24 9 13 1019.8 1019.9 0.0
16/02:30pm 14.1 11.2 8.1 67 3.0 ENE 13 20 7 11 1020.4 1020.5 0.0
16/02:00pm 14.7 11.6 8.9 68 2.9 ENE 15 24 8 13 1020.9 1021.0 0.0
16/01:30pm 14.0 10.3 7.8 66 3.1 NE 17 24 9 13 1021.3 1021.4 0.0
16/01:00pm 14.6 11.8 8.5 67 3.1 ENE 13 20 7 11 1021.7 1021.8 0.0
16/12:30pm 13.7 10.0 6.3 61 3.6 NE 15 22 8 12 1022.2 1022.3 0.0
16/12:00pm 13.0 9.4 6.8 66 3.0 ENE 15 20 8 11 1022.6 1022.7 0.0
16/11:30am 13.3 9.6 6.2 62 3.4 ENE 15 24 8 13 1023.0 1023.1 0.0
16/11:00am 12.9 8.4 6.9 67 2.9 ENE 20 28 11 15 1023.3 1023.4 0.0
16/10:30am 12.5 8.2 6.8 68 2.7 NE 19 28 10 15 1023.6 1023.7 0.0
16/10:00am 11.8 7.9 7.1 73 2.2 NE 17 26 9 14 1024.1 1024.2 0.0

Other formats

Comma delimited format used in spreadsheet applications
http://www.bom.gov.au/fwo/IDV60801/IDV60801.94837.axf

JavaScript Object Notation format (JSON) in row-major order
http://www.bom.gov.au/fwo/IDV60801/IDV60801.94837.json

Data quality

Most of these data are generated automatically and are frequently updated. Quality checks on data are not normally performed. It is possible for incorrect values to appear. Refer to information at About Latest Weather Observations and please check the disclaimer before using these data.